sensor_id;sensor_type;location;lat;lon;timestamp;P1;durP1;ratioP1;P2;durP2;ratioP2
28373;SDS011;15616;40.148;-102.718;2022-10-31T00:03:52;6.57;;;3.75;;
28373;SDS011;15616;40.148;-102.718;2022-10-31T00:06:18;10.30;;;3.88;;
28373;SDS011;15616;40.148;-102.718;2022-10-31T00:08:47;6.78;;;3.80;;
28373;SDS011;15616;40.148;-102.718;2022-10-31T00:11:21;8.05;;;3.63;;
28373;SDS011;15616;40.148;-102.718;2022-10-31T00:13:47;9.57;;;4.00;;
28373;SDS011;15616;40.148;-102.718;2022-10-31T00:16:16;7.00;;;3.97;;
28373;SDS011;15616;40.148;-102.718;2022-10-31T00:18:43;7.47;;;3.65;;
28373;SDS011;15616;40.148;-102.718;2022-10-31T00:21:12;8.30;;;4.05;;
28373;SDS011;15616;40.148;-102.718;2022-10-31T00:23:39;8.23;;;3.85;;
28373;SDS011;15616;40.148;-102.718;2022-10-31T00:26:05;6.50;;;3.65;;
28373;SDS011;15616;40.148;-102.718;2022-10-31T00:28:32;7.32;;;3.75;;
28373;SDS011;15616;40.148;-102.718;2022-10-31T00:30:58;7.70;;;3.75;;
28373;SDS011;15616;40.148;-102.718;2022-10-31T00:33:25;11.13;;;3.83;;
28373;SDS011;15616;40.148;-102.718;2022-10-31T00:35:51;6.03;;;3.35;;
28373;SDS011;15616;40.148;-102.718;2022-10-31T00:38:17;5.97;;;3.42;;
28373;SDS011;15616;40.148;-102.718;2022-10-31T00:40:43;6.88;;;3.60;;
28373;SDS011;15616;40.148;-102.718;2022-10-31T00:43:09;5.78;;;3.60;;
28373;SDS011;15616;40.148;-102.718;2022-10-31T00:45:35;7.05;;;3.47;;
28373;SDS011;15616;40.148;-102.718;2022-10-31T00:48:01;7.47;;;3.50;;
28373;SDS011;15616;40.148;-102.718;2022-10-31T00:50:27;7.10;;;3.75;;
28373;SDS011;15616;40.148;-102.718;2022-10-31T00:52:53;6.70;;;3.50;;
28373;SDS011;15616;40.148;-102.718;2022-10-31T00:55:19;6.75;;;3.20;;
28373;SDS011;15616;40.148;-102.718;2022-10-31T00:57:47;6.72;;;3.60;;
28373;SDS011;15616;40.148;-102.718;2022-10-31T01:00:14;6.70;;;3.33;;
28373;SDS011;15616;40.148;-102.718;2022-10-31T01:02:40;5.78;;;3.55;;
28373;SDS011;15616;40.148;-102.718;2022-10-31T01:05:06;6.63;;;3.75;;
28373;SDS011;15616;40.148;-102.718;2022-10-31T01:07:36;7.90;;;3.85;;
28373;SDS011;15616;40.148;-102.718;2022-10-31T01:10:05;8.68;;;3.80;;
28373;SDS011;15616;40.148;-102.718;2022-10-31T01:12:40;6.20;;;3.35;;
28373;SDS011;15616;40.148;-102.718;2022-10-31T01:15:08;7.82;;;3.78;;
28373;SDS011;15616;40.148;-102.718;2022-10-31T01:17:36;9.70;;;3.67;;
28373;SDS011;15616;40.148;-102.718;2022-10-31T01:20:02;6.68;;;3.90;;
28373;SDS011;15616;40.148;-102.718;2022-10-31T01:22:29;8.77;;;3.53;;
28373;SDS011;15616;40.148;-102.718;2022-10-31T01:24:55;7.03;;;3.67;;
28373;SDS011;15616;40.148;-102.718;2022-10-31T01:27:21;5.55;;;3.47;;
28373;SDS011;15616;40.148;-102.718;2022-10-31T01:29:46;6.90;;;3.40;;
28373;SDS011;15616;40.148;-102.718;2022-10-31T01:32:12;8.15;;;3.35;;
28373;SDS011;15616;40.148;-102.718;2022-10-31T01:34:38;6.70;;;3.55;;
28373;SDS011;15616;40.148;-102.718;2022-10-31T01:37:04;8.18;;;3.72;;
28373;SDS011;15616;40.148;-102.718;2022-10-31T01:39:30;7.80;;;3.90;;
28373;SDS011;15616;40.148;-102.718;2022-10-31T01:41:56;7.03;;;4.00;;
28373;SDS011;15616;40.148;-102.718;2022-10-31T01:47:01;6.95;;;3.63;;
28373;SDS011;15616;40.148;-102.718;2022-10-31T01:49:34;7.72;;;3.72;;
28373;SDS011;15616;40.148;-102.718;2022-10-31T01:52:04;6.68;;;3.47;;
28373;SDS011;15616;40.148;-102.718;2022-10-31T01:54:37;6.72;;;3.30;;
28373;SDS011;15616;40.148;-102.718;2022-10-31T01:57:10;9.70;;;3.60;;
28373;SDS011;15616;40.148;-102.718;2022-10-31T01:59:40;6.32;;;3.47;;
28373;SDS011;15616;40.148;-102.718;2022-10-31T02:02:11;6.32;;;3.53;;
28373;SDS011;15616;40.148;-102.718;2022-10-31T02:04:40;7.18;;;3.50;;
28373;SDS011;15616;40.148;-102.718;2022-10-31T02:07:10;7.43;;;3.60;;
28373;SDS011;15616;40.148;-102.718;2022-10-31T02:09:58;6.65;;;3.30;;
28373;SDS011;15616;40.148;-102.718;2022-10-31T02:12:24;5.53;;;2.88;;
28373;SDS011;15616;40.148;-102.718;2022-10-31T02:14:50;10.00;;;3.95;;
28373;SDS011;15616;40.148;-102.718;2022-10-31T02:17:16;6.68;;;3.40;;
28373;SDS011;15616;40.148;-102.718;2022-10-31T02:19:51;8.32;;;3.65;;
28373;SDS011;15616;40.148;-102.718;2022-10-31T02:22:40;8.27;;;3.70;;
28373;SDS011;15616;40.148;-102.718;2022-10-31T02:31:21;6.15;;;3.42;;
28373;SDS011;15616;40.148;-102.718;2022-10-31T02:33:50;9.43;;;3.65;;
28373;SDS011;15616;40.148;-102.718;2022-10-31T02:36:28;7.47;;;3.45;;
28373;SDS011;15616;40.148;-102.718;2022-10-31T02:39:36;7.07;;;3.53;;
28373;SDS011;15616;40.148;-102.718;2022-10-31T02:42:33;7.65;;;3.33;;
28373;SDS011;15616;40.148;-102.718;2022-10-31T02:47:49;7.75;;;3.45;;
28373;SDS011;15616;40.148;-102.718;2022-10-31T02:50:23;6.30;;;3.38;;
28373;SDS011;15616;40.148;-102.718;2022-10-31T02:52:58;6.70;;;3.53;;
28373;SDS011;15616;40.148;-102.718;2022-10-31T02:57:54;7.65;;;3.28;;
28373;SDS011;15616;40.148;-102.718;2022-10-31T03:00:25;8.93;;;3.35;;
28373;SDS011;15616;40.148;-102.718;2022-10-31T03:05:48;6.47;;;3.20;;
28373;SDS011;15616;40.148;-102.718;2022-10-31T03:08:35;7.38;;;3.38;;
28373;SDS011;15616;40.148;-102.718;2022-10-31T03:11:13;6.93;;;3.47;;
28373;SDS011;15616;40.148;-102.718;2022-10-31T03:18:40;7.43;;;3.60;;
28373;SDS011;15616;40.148;-102.718;2022-10-31T03:21:21;6.07;;;3.20;;
28373;SDS011;15616;40.148;-102.718;2022-10-31T03:24:08;5.80;;;3.45;;
28373;SDS011;15616;40.148;-102.718;2022-10-31T03:26:38;6.15;;;3.40;;
28373;SDS011;15616;40.148;-102.718;2022-10-31T03:29:08;7.32;;;4.10;;
28373;SDS011;15616;40.148;-102.718;2022-10-31T03:31:40;6.70;;;3.40;;
28373;SDS011;15616;40.148;-102.718;2022-10-31T03:34:14;5.82;;;3.17;;
28373;SDS011;15616;40.148;-102.718;2022-10-31T03:36:42;7.57;;;3.50;;
28373;SDS011;15616;40.148;-102.718;2022-10-31T03:39:12;5.88;;;3.10;;
28373;SDS011;15616;40.148;-102.718;2022-10-31T03:41:44;7.65;;;3.65;;
28373;SDS011;15616;40.148;-102.718;2022-10-31T03:44:34;6.65;;;3.20;;
28373;SDS011;15616;40.148;-102.718;2022-10-31T03:47:02;6.43;;;3.30;;
28373;SDS011;15616;40.148;-102.718;2022-10-31T03:49:29;6.10;;;3.17;;
28373;SDS011;15616;40.148;-102.718;2022-10-31T03:51:58;6.82;;;3.20;;
28373;SDS011;15616;40.148;-102.718;2022-10-31T03:55:02;5.90;;;3.28;;
28373;SDS011;15616;40.148;-102.718;2022-10-31T03:57:37;5.57;;;3.00;;
28373;SDS011;15616;40.148;-102.718;2022-10-31T04:00:13;7.40;;;3.58;;
28373;SDS011;15616;40.148;-102.718;2022-10-31T04:02:43;7.45;;;3.40;;
28373;SDS011;15616;40.148;-102.718;2022-10-31T04:07:53;5.20;;;3.50;;
28373;SDS011;15616;40.148;-102.718;2022-10-31T04:10:21;5.57;;;3.20;;
28373;SDS011;15616;40.148;-102.718;2022-10-31T04:12:54;6.55;;;3.17;;
28373;SDS011;15616;40.148;-102.718;2022-10-31T04:15:25;11.90;;;3.58;;
28373;SDS011;15616;40.148;-102.718;2022-10-31T04:17:53;7.55;;;3.22;;
28373;SDS011;15616;40.148;-102.718;2022-10-31T04:20:33;5.47;;;3.03;;
28373;SDS011;15616;40.148;-102.718;2022-10-31T04:23:00;9.35;;;3.75;;
28373;SDS011;15616;40.148;-102.718;2022-10-31T04:25:27;5.07;;;3.13;;
28373;SDS011;15616;40.148;-102.718;2022-10-31T04:27:53;6.72;;;3.03;;
28373;SDS011;15616;40.148;-102.718;2022-10-31T04:30:19;6.28;;;3.30;;
28373;SDS011;15616;40.148;-102.718;2022-10-31T04:32:45;7.13;;;3.47;;
28373;SDS011;15616;40.148;-102.718;2022-10-31T04:35:12;6.57;;;3.10;;
28373;SDS011;15616;40.148;-102.718;2022-10-31T04:37:38;5.43;;;3.25;;
28373;SDS011;15616;40.148;-102.718;2022-10-31T04:40:04;5.65;;;3.08;;
28373;SDS011;15616;40.148;-102.718;2022-10-31T04:42:31;6.97;;;3.60;;
28373;SDS011;15616;40.148;-102.718;2022-10-31T04:44:56;6.72;;;3.25;;
28373;SDS011;15616;40.148;-102.718;2022-10-31T04:47:22;5.60;;;3.00;;
28373;SDS011;15616;40.148;-102.718;2022-10-31T04:49:48;6.28;;;3.08;;
28373;SDS011;15616;40.148;-102.718;2022-10-31T04:52:14;5.35;;;3.20;;
28373;SDS011;15616;40.148;-102.718;2022-10-31T04:54:40;5.78;;;3.13;;
28373;SDS011;15616;40.148;-102.718;2022-10-31T04:57:06;5.72;;;3.30;;
28373;SDS011;15616;40.148;-102.718;2022-10-31T04:59:32;6.20;;;3.30;;
28373;SDS011;15616;40.148;-102.718;2022-10-31T05:01:58;6.50;;;3.22;;
28373;SDS011;15616;40.148;-102.718;2022-10-31T05:04:24;10.18;;;3.78;;
28373;SDS011;15616;40.148;-102.718;2022-10-31T05:06:49;6.13;;;3.28;;
28373;SDS011;15616;40.148;-102.718;2022-10-31T05:09:15;6.43;;;3.40;;
28373;SDS011;15616;40.148;-102.718;2022-10-31T05:11:41;6.95;;;3.35;;
28373;SDS011;15616;40.148;-102.718;2022-10-31T05:14:07;5.45;;;2.97;;
28373;SDS011;15616;40.148;-102.718;2022-10-31T05:16:33;7.85;;;3.47;;
28373;SDS011;15616;40.148;-102.718;2022-10-31T05:18:59;6.38;;;3.13;;
28373;SDS011;15616;40.148;-102.718;2022-10-31T05:21:25;6.85;;;3.22;;
28373;SDS011;15616;40.148;-102.718;2022-10-31T05:23:51;5.32;;;3.15;;
28373;SDS011;15616;40.148;-102.718;2022-10-31T05:26:17;6.53;;;3.30;;
28373;SDS011;15616;40.148;-102.718;2022-10-31T05:28:43;6.32;;;3.38;;
28373;SDS011;15616;40.148;-102.718;2022-10-31T05:31:09;5.50;;;3.08;;
28373;SDS011;15616;40.148;-102.718;2022-10-31T05:33:35;6.65;;;3.08;;
28373;SDS011;15616;40.148;-102.718;2022-10-31T05:36:00;5.78;;;3.20;;
28373;SDS011;15616;40.148;-102.718;2022-10-31T05:38:26;7.20;;;3.33;;
28373;SDS011;15616;40.148;-102.718;2022-10-31T05:40:55;6.40;;;3.10;;
28373;SDS011;15616;40.148;-102.718;2022-10-31T05:43:23;7.25;;;3.20;;
28373;SDS011;15616;40.148;-102.718;2022-10-31T05:45:52;4.47;;;2.80;;
28373;SDS011;15616;40.148;-102.718;2022-10-31T05:48:19;15.50;;;3.40;;
28373;SDS011;15616;40.148;-102.718;2022-10-31T05:50:46;7.13;;;3.28;;
28373;SDS011;15616;40.148;-102.718;2022-10-31T05:53:14;8.80;;;3.13;;
28373;SDS011;15616;40.148;-102.718;2022-10-31T05:55:41;6.40;;;3.00;;
28373;SDS011;15616;40.148;-102.718;2022-10-31T05:58:08;5.82;;;2.90;;
28373;SDS011;15616;40.148;-102.718;2022-10-31T06:00:35;7.65;;;3.17;;
28373;SDS011;15616;40.148;-102.718;2022-10-31T06:03:02;4.75;;;2.78;;
28373;SDS011;15616;40.148;-102.718;2022-10-31T06:05:30;7.40;;;2.80;;
28373;SDS011;15616;40.148;-102.718;2022-10-31T06:07:56;9.35;;;3.28;;
28373;SDS011;15616;40.148;-102.718;2022-10-31T06:10:22;6.57;;;3.17;;
28373;SDS011;15616;40.148;-102.718;2022-10-31T06:12:48;7.15;;;3.35;;
28373;SDS011;15616;40.148;-102.718;2022-10-31T06:15:15;6.47;;;2.88;;
28373;SDS011;15616;40.148;-102.718;2022-10-31T06:17:42;5.30;;;2.78;;
28373;SDS011;15616;40.148;-102.718;2022-10-31T06:20:08;6.32;;;2.95;;
28373;SDS011;15616;40.148;-102.718;2022-10-31T06:22:34;6.13;;;2.75;;
28373;SDS011;15616;40.148;-102.718;2022-10-31T06:25:00;6.22;;;2.90;;
28373;SDS011;15616;40.148;-102.718;2022-10-31T06:27:26;7.78;;;2.80;;
28373;SDS011;15616;40.148;-102.718;2022-10-31T06:29:52;5.53;;;2.70;;
28373;SDS011;15616;40.148;-102.718;2022-10-31T06:32:18;8.27;;;3.00;;
28373;SDS011;15616;40.148;-102.718;2022-10-31T06:34:44;7.00;;;2.97;;
28373;SDS011;15616;40.148;-102.718;2022-10-31T06:37:13;6.75;;;2.80;;
28373;SDS011;15616;40.148;-102.718;2022-10-31T06:39:39;5.80;;;2.78;;
28373;SDS011;15616;40.148;-102.718;2022-10-31T06:42:05;10.23;;;3.20;;
28373;SDS011;15616;40.148;-102.718;2022-10-31T06:44:31;8.52;;;3.08;;
28373;SDS011;15616;40.148;-102.718;2022-10-31T06:46:58;10.95;;;3.38;;
28373;SDS011;15616;40.148;-102.718;2022-10-31T06:49:24;12.18;;;3.10;;
28373;SDS011;15616;40.148;-102.718;2022-10-31T06:51:50;8.27;;;3.38;;
28373;SDS011;15616;40.148;-102.718;2022-10-31T06:54:16;15.95;;;3.35;;
28373;SDS011;15616;40.148;-102.718;2022-10-31T06:56:45;13.20;;;3.58;;
28373;SDS011;15616;40.148;-102.718;2022-10-31T06:59:12;9.48;;;3.20;;
28373;SDS011;15616;40.148;-102.718;2022-10-31T07:01:38;8.25;;;3.20;;
28373;SDS011;15616;40.148;-102.718;2022-10-31T07:04:04;7.88;;;2.83;;
28373;SDS011;15616;40.148;-102.718;2022-10-31T07:06:30;19.13;;;3.30;;
28373;SDS011;15616;40.148;-102.718;2022-10-31T07:08:56;14.00;;;2.95;;
28373;SDS011;15616;40.148;-102.718;2022-10-31T07:11:22;19.45;;;3.22;;
28373;SDS011;15616;40.148;-102.718;2022-10-31T07:13:47;16.17;;;3.33;;
28373;SDS011;15616;40.148;-102.718;2022-10-31T07:16:13;19.38;;;3.30;;
28373;SDS011;15616;40.148;-102.718;2022-10-31T07:18:39;25.02;;;4.20;;
28373;SDS011;15616;40.148;-102.718;2022-10-31T07:21:05;15.40;;;3.70;;
28373;SDS011;15616;40.148;-102.718;2022-10-31T07:23:31;28.17;;;4.38;;
28373;SDS011;15616;40.148;-102.718;2022-10-31T07:25:58;23.70;;;3.97;;
28373;SDS011;15616;40.148;-102.718;2022-10-31T07:28:25;27.25;;;4.30;;
28373;SDS011;15616;40.148;-102.718;2022-10-31T07:30:52;27.25;;;4.22;;
28373;SDS011;15616;40.148;-102.718;2022-10-31T07:33:19;16.33;;;3.80;;
28373;SDS011;15616;40.148;-102.718;2022-10-31T07:35:45;26.42;;;4.07;;
28373;SDS011;15616;40.148;-102.718;2022-10-31T07:38:12;16.73;;;3.50;;
28373;SDS011;15616;40.148;-102.718;2022-10-31T07:40:39;16.40;;;4.15;;
28373;SDS011;15616;40.148;-102.718;2022-10-31T07:43:07;24.88;;;3.55;;
28373;SDS011;15616;40.148;-102.718;2022-10-31T07:45:33;15.52;;;4.00;;
28373;SDS011;15616;40.148;-102.718;2022-10-31T07:47:59;17.70;;;3.90;;
28373;SDS011;15616;40.148;-102.718;2022-10-31T07:50:31;16.17;;;3.95;;
28373;SDS011;15616;40.148;-102.718;2022-10-31T07:53:01;27.60;;;3.88;;
28373;SDS011;15616;40.148;-102.718;2022-10-31T07:55:28;19.02;;;4.28;;
28373;SDS011;15616;40.148;-102.718;2022-10-31T07:57:58;20.75;;;3.88;;
28373;SDS011;15616;40.148;-102.718;2022-10-31T08:00:25;37.97;;;4.80;;
28373;SDS011;15616;40.148;-102.718;2022-10-31T08:03:02;26.88;;;4.25;;
28373;SDS011;15616;40.148;-102.718;2022-10-31T08:05:33;23.50;;;4.38;;
28373;SDS011;15616;40.148;-102.718;2022-10-31T08:07:59;26.50;;;4.40;;
28373;SDS011;15616;40.148;-102.718;2022-10-31T08:10:26;24.00;;;4.65;;
28373;SDS011;15616;40.148;-102.718;2022-10-31T08:12:56;31.52;;;4.20;;
28373;SDS011;15616;40.148;-102.718;2022-10-31T08:15:23;38.63;;;5.45;;
28373;SDS011;15616;40.148;-102.718;2022-10-31T08:17:50;26.20;;;4.47;;
28373;SDS011;15616;40.148;-102.718;2022-10-31T08:20:16;26.92;;;4.50;;
28373;SDS011;15616;40.148;-102.718;2022-10-31T08:22:42;42.95;;;4.95;;
28373;SDS011;15616;40.148;-102.718;2022-10-31T08:25:08;20.77;;;4.20;;
28373;SDS011;15616;40.148;-102.718;2022-10-31T08:27:34;29.67;;;3.95;;
28373;SDS011;15616;40.148;-102.718;2022-10-31T08:30:00;29.95;;;3.63;;
28373;SDS011;15616;40.148;-102.718;2022-10-31T08:32:26;21.30;;;3.47;;
28373;SDS011;15616;40.148;-102.718;2022-10-31T08:34:52;28.88;;;4.20;;
28373;SDS011;15616;40.148;-102.718;2022-10-31T08:37:17;27.05;;;4.07;;
28373;SDS011;15616;40.148;-102.718;2022-10-31T08:39:48;24.90;;;3.58;;
28373;SDS011;15616;40.148;-102.718;2022-10-31T08:42:14;26.02;;;4.00;;
28373;SDS011;15616;40.148;-102.718;2022-10-31T08:44:39;34.17;;;4.40;;
28373;SDS011;15616;40.148;-102.718;2022-10-31T08:47:05;28.58;;;4.18;;
28373;SDS011;15616;40.148;-102.718;2022-10-31T08:49:31;22.15;;;4.20;;
28373;SDS011;15616;40.148;-102.718;2022-10-31T08:51:57;21.83;;;4.20;;
28373;SDS011;15616;40.148;-102.718;2022-10-31T08:54:23;24.48;;;4.32;;
28373;SDS011;15616;40.148;-102.718;2022-10-31T08:56:53;24.23;;;5.20;;
28373;SDS011;15616;40.148;-102.718;2022-10-31T08:59:20;30.60;;;4.45;;
28373;SDS011;15616;40.148;-102.718;2022-10-31T09:01:46;24.80;;;3.92;;
28373;SDS011;15616;40.148;-102.718;2022-10-31T09:04:11;23.50;;;4.32;;
28373;SDS011;15616;40.148;-102.718;2022-10-31T09:06:37;30.65;;;4.30;;
28373;SDS011;15616;40.148;-102.718;2022-10-31T09:09:03;33.20;;;4.53;;
28373;SDS011;15616;40.148;-102.718;2022-10-31T09:11:30;36.22;;;4.35;;
28373;SDS011;15616;40.148;-102.718;2022-10-31T09:13:56;22.67;;;3.47;;
28373;SDS011;15616;40.148;-102.718;2022-10-31T09:16:22;33.97;;;4.72;;
28373;SDS011;15616;40.148;-102.718;2022-10-31T09:18:48;19.15;;;4.25;;
28373;SDS011;15616;40.148;-102.718;2022-10-31T09:21:14;14.63;;;3.08;;
28373;SDS011;15616;40.148;-102.718;2022-10-31T09:23:40;21.60;;;4.32;;
28373;SDS011;15616;40.148;-102.718;2022-10-31T09:26:06;28.30;;;4.28;;
28373;SDS011;15616;40.148;-102.718;2022-10-31T09:28:32;30.35;;;4.78;;
28373;SDS011;15616;40.148;-102.718;2022-10-31T09:30:58;21.50;;;3.88;;
28373;SDS011;15616;40.148;-102.718;2022-10-31T09:33:24;30.48;;;4.43;;
28373;SDS011;15616;40.148;-102.718;2022-10-31T09:35:50;32.15;;;4.47;;
28373;SDS011;15616;40.148;-102.718;2022-10-31T09:38:19;39.80;;;4.78;;
28373;SDS011;15616;40.148;-102.718;2022-10-31T09:40:52;28.58;;;5.32;;
28373;SDS011;15616;40.148;-102.718;2022-10-31T09:46:38;36.22;;;5.38;;
28373;SDS011;15616;40.148;-102.718;2022-10-31T09:52:36;36.00;;;5.60;;
28373;SDS011;15616;40.148;-102.718;2022-10-31T09:55:16;20.70;;;4.68;;
28373;SDS011;15616;40.148;-102.718;2022-10-31T09:57:56;29.17;;;4.22;;
28373;SDS011;15616;40.148;-102.718;2022-10-31T10:00:24;26.40;;;4.20;;
28373;SDS011;15616;40.148;-102.718;2022-10-31T10:02:58;31.15;;;4.32;;
28373;SDS011;15616;40.148;-102.718;2022-10-31T10:05:52;46.45;;;5.97;;
28373;SDS011;15616;40.148;-102.718;2022-10-31T10:08:34;54.47;;;6.63;;
28373;SDS011;15616;40.148;-102.718;2022-10-31T10:14:02;41.33;;;6.18;;
28373;SDS011;15616;40.148;-102.718;2022-10-31T10:22:16;27.08;;;4.45;;
28373;SDS011;15616;40.148;-102.718;2022-10-31T10:24:56;31.13;;;5.35;;
28373;SDS011;15616;40.148;-102.718;2022-10-31T10:30:23;25.70;;;5.15;;
28373;SDS011;15616;40.148;-102.718;2022-10-31T10:36:04;35.95;;;5.20;;
28373;SDS011;15616;40.148;-102.718;2022-10-31T10:38:39;43.75;;;5.82;;
28373;SDS011;15616;40.148;-102.718;2022-10-31T10:41:22;36.05;;;6.05;;
28373;SDS011;15616;40.148;-102.718;2022-10-31T10:43:50;29.55;;;5.25;;
28373;SDS011;15616;40.148;-102.718;2022-10-31T10:59:29;29.42;;;5.40;;
28373;SDS011;15616;40.148;-102.718;2022-10-31T11:01:56;24.65;;;4.88;;
28373;SDS011;15616;40.148;-102.718;2022-10-31T11:04:29;37.35;;;5.40;;
28373;SDS011;15616;40.148;-102.718;2022-10-31T11:07:04;33.47;;;4.68;;
28373;SDS011;15616;40.148;-102.718;2022-10-31T11:09:32;29.02;;;4.70;;
28373;SDS011;15616;40.148;-102.718;2022-10-31T11:11:59;44.05;;;5.18;;
28373;SDS011;15616;40.148;-102.718;2022-10-31T11:14:33;26.67;;;5.22;;
28373;SDS011;15616;40.148;-102.718;2022-10-31T11:17:34;44.38;;;5.43;;
28373;SDS011;15616;40.148;-102.718;2022-10-31T11:20:16;40.50;;;4.72;;
28373;SDS011;15616;40.148;-102.718;2022-10-31T11:23:00;43.67;;;5.55;;
28373;SDS011;15616;40.148;-102.718;2022-10-31T11:25:48;46.55;;;5.75;;
28373;SDS011;15616;40.148;-102.718;2022-10-31T11:28:29;32.23;;;6.33;;
28373;SDS011;15616;40.148;-102.718;2022-10-31T11:31:11;42.67;;;7.00;;
28373;SDS011;15616;40.148;-102.718;2022-10-31T11:33:48;49.92;;;6.32;;
28373;SDS011;15616;40.148;-102.718;2022-10-31T11:36:23;37.20;;;5.97;;
28373;SDS011;15616;40.148;-102.718;2022-10-31T11:38:51;43.00;;;5.70;;
28373;SDS011;15616;40.148;-102.718;2022-10-31T11:44:30;48.17;;;6.55;;
28373;SDS011;15616;40.148;-102.718;2022-10-31T11:46:52;29.92;;;5.65;;
28373;SDS011;15616;40.148;-102.718;2022-10-31T11:51:49;46.83;;;6.40;;
28373;SDS011;15616;40.148;-102.718;2022-10-31T11:54:22;51.38;;;7.00;;
28373;SDS011;15616;40.148;-102.718;2022-10-31T11:57:21;59.58;;;7.03;;
28373;SDS011;15616;40.148;-102.718;2022-10-31T11:59:52;43.38;;;7.20;;
28373;SDS011;15616;40.148;-102.718;2022-10-31T12:02:20;80.35;;;8.77;;
28373;SDS011;15616;40.148;-102.718;2022-10-31T12:04:49;53.75;;;6.75;;
28373;SDS011;15616;40.148;-102.718;2022-10-31T12:07:20;29.20;;;4.47;;
28373;SDS011;15616;40.148;-102.718;2022-10-31T12:09:47;45.97;;;6.28;;
28373;SDS011;15616;40.148;-102.718;2022-10-31T12:12:17;53.15;;;6.32;;
28373;SDS011;15616;40.148;-102.718;2022-10-31T12:28:18;76.18;;;7.70;;
28373;SDS011;15616;40.148;-102.718;2022-10-31T12:37:15;87.60;;;10.52;;
28373;SDS011;15616;40.148;-102.718;2022-10-31T12:58:46;69.00;;;7.68;;
28373;SDS011;15616;40.148;-102.718;2022-10-31T13:01:36;56.28;;;7.25;;
28373;SDS011;15616;40.148;-102.718;2022-10-31T13:04:39;54.40;;;8.82;;
28373;SDS011;15616;40.148;-102.718;2022-10-31T13:07:28;53.25;;;8.02;;
28373;SDS011;15616;40.148;-102.718;2022-10-31T13:12:37;48.33;;;7.55;;
28373;SDS011;15616;40.148;-102.718;2022-10-31T13:15:11;37.17;;;6.53;;
28373;SDS011;15616;40.148;-102.718;2022-10-31T13:17:42;55.15;;;6.80;;
28373;SDS011;15616;40.148;-102.718;2022-10-31T13:22:50;55.13;;;7.72;;
28373;SDS011;15616;40.148;-102.718;2022-10-31T13:25:31;72.43;;;9.23;;
28373;SDS011;15616;40.148;-102.718;2022-10-31T13:28:04;81.07;;;8.18;;
28373;SDS011;15616;40.148;-102.718;2022-10-31T13:30:40;51.80;;;7.65;;
28373;SDS011;15616;40.148;-102.718;2022-10-31T13:33:09;57.83;;;7.93;;
28373;SDS011;15616;40.148;-102.718;2022-10-31T13:36:03;72.75;;;7.60;;
28373;SDS011;15616;40.148;-102.718;2022-10-31T13:44:18;45.35;;;6.32;;
28373;SDS011;15616;40.148;-102.718;2022-10-31T13:46:52;48.95;;;6.38;;
28373;SDS011;15616;40.148;-102.718;2022-10-31T13:51:52;63.97;;;7.18;;
28373;SDS011;15616;40.148;-102.718;2022-10-31T13:56:57;49.70;;;6.60;;
28373;SDS011;15616;40.148;-102.718;2022-10-31T13:59:24;55.28;;;6.43;;
28373;SDS011;15616;40.148;-102.718;2022-10-31T14:01:55;59.35;;;7.53;;
28373;SDS011;15616;40.148;-102.718;2022-10-31T14:04:37;46.55;;;7.40;;
28373;SDS011;15616;40.148;-102.718;2022-10-31T14:07:10;58.53;;;7.63;;
28373;SDS011;15616;40.148;-102.718;2022-10-31T14:12:27;63.92;;;6.93;;
28373;SDS011;15616;40.148;-102.718;2022-10-31T14:15:03;57.17;;;6.05;;
28373;SDS011;15616;40.148;-102.718;2022-10-31T14:17:48;63.45;;;7.25;;
28373;SDS011;15616;40.148;-102.718;2022-10-31T14:20:22;45.20;;;5.87;;
28373;SDS011;15616;40.148;-102.718;2022-10-31T14:26:06;40.97;;;6.32;;
28373;SDS011;15616;40.148;-102.718;2022-10-31T14:28:32;50.75;;;5.85;;
28373;SDS011;15616;40.148;-102.718;2022-10-31T14:31:00;36.17;;;5.85;;
28373;SDS011;15616;40.148;-102.718;2022-10-31T14:33:28;53.03;;;6.88;;
28373;SDS011;15616;40.148;-102.718;2022-10-31T14:36:00;64.07;;;6.97;;
28373;SDS011;15616;40.148;-102.718;2022-10-31T14:46:48;58.95;;;5.82;;
28373;SDS011;15616;40.148;-102.718;2022-10-31T14:52:11;54.13;;;6.60;;
28373;SDS011;15616;40.148;-102.718;2022-10-31T14:54:40;62.55;;;7.03;;
28373;SDS011;15616;40.148;-102.718;2022-10-31T14:57:27;51.53;;;6.50;;
28373;SDS011;15616;40.148;-102.718;2022-10-31T14:59:59;39.88;;;6.15;;
28373;SDS011;15616;40.148;-102.718;2022-10-31T15:02:32;50.13;;;5.70;;
28373;SDS011;15616;40.148;-102.718;2022-10-31T15:05:17;53.28;;;5.75;;
28373;SDS011;15616;40.148;-102.718;2022-10-31T15:07:48;36.95;;;6.07;;
28373;SDS011;15616;40.148;-102.718;2022-10-31T15:10:20;49.80;;;6.77;;
28373;SDS011;15616;40.148;-102.718;2022-10-31T15:12:51;40.95;;;5.80;;
28373;SDS011;15616;40.148;-102.718;2022-10-31T15:15:19;47.45;;;6.47;;
28373;SDS011;15616;40.148;-102.718;2022-10-31T15:17:54;46.15;;;5.82;;
28373;SDS011;15616;40.148;-102.718;2022-10-31T15:20:24;37.47;;;5.65;;
28373;SDS011;15616;40.148;-102.718;2022-10-31T15:22:53;40.17;;;5.18;;
28373;SDS011;15616;40.148;-102.718;2022-10-31T15:25:22;34.50;;;6.05;;
28373;SDS011;15616;40.148;-102.718;2022-10-31T15:27:50;30.13;;;5.80;;
28373;SDS011;15616;40.148;-102.718;2022-10-31T15:30:24;23.52;;;5.20;;
28373;SDS011;15616;40.148;-102.718;2022-10-31T15:32:54;28.70;;;5.10;;
28373;SDS011;15616;40.148;-102.718;2022-10-31T15:35:22;30.00;;;5.75;;
28373;SDS011;15616;40.148;-102.718;2022-10-31T15:37:51;39.22;;;5.80;;
28373;SDS011;15616;40.148;-102.718;2022-10-31T15:40:18;34.97;;;5.97;;
28373;SDS011;15616;40.148;-102.718;2022-10-31T15:43:00;29.65;;;5.60;;
28373;SDS011;15616;40.148;-102.718;2022-10-31T15:45:29;29.33;;;5.32;;
28373;SDS011;15616;40.148;-102.718;2022-10-31T15:47:59;30.73;;;4.88;;
28373;SDS011;15616;40.148;-102.718;2022-10-31T15:53:05;30.67;;;4.90;;
28373;SDS011;15616;40.148;-102.718;2022-10-31T15:55:57;30.45;;;5.38;;
28373;SDS011;15616;40.148;-102.718;2022-10-31T15:58:24;35.85;;;5.63;;
28373;SDS011;15616;40.148;-102.718;2022-10-31T16:00:57;32.55;;;5.18;;
28373;SDS011;15616;40.148;-102.718;2022-10-31T16:03:31;36.72;;;5.18;;
28373;SDS011;15616;40.148;-102.718;2022-10-31T16:05:59;31.63;;;5.45;;
28373;SDS011;15616;40.148;-102.718;2022-10-31T16:11:37;32.03;;;5.03;;
28373;SDS011;15616;40.148;-102.718;2022-10-31T16:16:27;34.15;;;5.28;;
28373;SDS011;15616;40.148;-102.718;2022-10-31T16:18:54;27.85;;;5.25;;
28373;SDS011;15616;40.148;-102.718;2022-10-31T16:21:55;28.42;;;5.10;;
28373;SDS011;15616;40.148;-102.718;2022-10-31T16:26:54;27.15;;;5.00;;
28373;SDS011;15616;40.148;-102.718;2022-10-31T16:29:44;27.50;;;4.72;;
28373;SDS011;15616;40.148;-102.718;2022-10-31T16:32:33;25.40;;;4.82;;
28373;SDS011;15616;40.148;-102.718;2022-10-31T16:37:52;30.48;;;5.90;;
28373;SDS011;15616;40.148;-102.718;2022-10-31T16:40:18;29.63;;;5.32;;
28373;SDS011;15616;40.148;-102.718;2022-10-31T16:42:45;34.45;;;5.15;;
28373;SDS011;15616;40.148;-102.718;2022-10-31T16:45:22;24.95;;;4.65;;
28373;SDS011;15616;40.148;-102.718;2022-10-31T16:47:49;26.23;;;5.38;;
28373;SDS011;15616;40.148;-102.718;2022-10-31T16:52:47;22.02;;;4.43;;
28373;SDS011;15616;40.148;-102.718;2022-10-31T16:55:17;18.05;;;4.28;;